.
WxDataArchive / Data Records for 2007-08-23
2007-08-22 August 2007 2007-08-24

Data Records for Thursday, 23 August 2007

Time	Temp	Chill	HIndex	Humid	Dewpt	 Wind 	HiWind	WindDir	Rain 	Barom 
-----	----	-----	------	-----	-----	------	------	-------	-----	----- 
00:00	74.9	74.9	74.9	94	73.0	0	0	---	0.00	29.899 
00:05	74.7	74.7	74.7	94	72.9	0	0	---	0.00	29.895 
00:10	74.7	74.7	74.7	95	73.2	0	0	---	0.00	29.896 
00:15	74.9	74.9	74.9	95	73.4	0	0	---	0.00	29.895 
00:20	75.1	75.1	73.4	95	73.6	0	0	---	0.00	29.894 
00:25	75.1	75.1	73.4	95	73.6	0	0	---	0.00	29.895 
00:30	75.1	75.1	73.4	95	73.6	0	0	---	0.00	29.894 
00:35	74.9	74.9	74.9	95	73.4	0	0	---	0.00	29.895 
00:40	74.9	74.9	74.9	95	73.4	0	0	---	0.00	29.895 
00:45	74.9	74.9	74.9	95	73.4	0	0	---	0.00	29.895 
00:50	74.9	74.9	74.9	95	73.4	0	1	270	0.00	29.894 
00:55	74.9	74.9	74.9	95	73.4	0	0	---	0.00	29.893 
01:00	74.9	74.9	74.9	94	73.0	0	0	---	0.00	29.894 
01:05	74.9	74.9	74.9	94	73.0	0	2	270	0.00	29.894 
01:10	75.1	75.1	73.6	94	73.2	0	2	270	0.00	29.893 
01:15	75.3	75.3	74.0	94	73.4	0	1	270	0.00	29.893 
01:20	75.3	75.3	74.2	93	73.1	0	1	270	0.00	29.891 
01:25	75.3	75.3	74.2	93	73.1	0	1	270	0.00	29.887 
01:30	75.4	75.4	74.5	92	72.9	0	0	---	0.00	29.886 
01:35	75.4	75.4	74.5	92	72.9	0	0	---	0.00	29.880 
01:40	75.4	75.4	74.5	92	72.9	0	1	270	0.00	29.880 
01:45	75.4	75.4	74.7	91	72.6	0	1	270	0.00	29.881 
01:50	75.6	75.6	75.1	91	72.8	0	1	270	0.00	29.880 
01:55	75.6	75.6	75.1	91	72.8	0	1	270	0.00	29.878 
02:00	75.8	75.8	75.6	90	72.6	0	1	270	0.00	29.877 
02:05	75.8	75.8	75.6	90	72.6	0	0	---	0.00	29.877 
02:10	75.8	75.8	75.6	90	72.6	0	0	---	0.00	29.877 
02:15	75.8	75.8	75.6	90	72.6	0	1	270	0.00	29.879 
02:20	76.0	76.0	76.0	90	72.8	0	1	270	0.00	29.878 
02:25	76.0	76.0	76.2	89	72.5	0	1	270	0.00	29.877 
02:30	76.0	76.0	76.2	89	72.5	0	1	270	0.00	29.878 
02:35	76.1	76.1	76.4	89	72.6	0	1	270	0.00	29.878 
02:40	76.1	76.1	76.4	89	72.6	0	1	270	0.00	29.878 
02:45	76.3	76.3	76.8	88	72.5	1	5	270	0.00	29.890 
02:50	76.8	76.8	78.0	85	71.9	3	7	270	0.00	29.908 
02:55	77.0	77.0	78.5	83	71.4	1	4	315	0.00	29.909 
03:00	76.3	76.3	77.4	81	70.0	1	4	292	0.00	29.909 
03:05	75.6	75.6	76.4	80	69.0	1	3	292	0.00	29.920 
03:10	74.9	74.9	74.9	80	68.3	1	4	292	0.00	29.919 
03:15	74.4	74.4	74.4	81	68.2	1	4	270	0.00	29.921 
03:20	74.0	74.0	74.0	81	67.8	1	3	315	0.00	29.920 
03:25	73.7	73.7	73.7	82	67.9	0	2	315	0.00	29.918 
03:30	73.5	73.5	73.5	82	67.7	0	1	315	0.00	29.922 
03:35	73.3	73.3	73.3	82	67.5	0	3	270	0.00	29.926 
03:40	73.2	73.2	73.2	82	67.4	0	2	0	0.00	29.927 
03:45	73.2	73.2	73.2	82	67.4	0	1	0	0.00	29.924 
03:50	73.0	73.0	73.0	83	67.5	0	1	0	0.00	29.923 
03:55	72.8	72.8	72.8	83	67.3	0	1	0	0.00	29.922 
04:00	72.8	72.8	72.8	83	67.3	0	1	0	0.00	29.920 
04:05	72.7	72.7	72.7	83	67.2	0	1	0	0.00	29.917 
04:10	72.7	72.7	72.7	83	67.2	0	1	0	0.00	29.913 
04:15	72.5	72.5	72.5	84	67.4	0	1	0	0.00	29.913 
04:20	72.3	72.3	72.3	84	67.2	0	1	0	0.00	29.908 
04:25	72.3	72.3	72.3	84	67.2	0	1	0	0.00	29.909 
04:30	72.1	72.1	72.1	85	67.3	0	0	---	0.00	29.908 
04:35	72.0	72.0	72.0	85	67.2	0	1	0	0.00	29.914 
04:40	72.0	72.0	72.0	86	67.6	0	2	0	0.00	29.908 
04:45	71.8	71.8	71.8	86	67.4	0	1	0	0.00	29.905 
04:50	71.6	71.6	71.6	86	67.2	0	0	---	0.00	29.910 
04:55	71.5	71.5	71.5	87	67.4	0	0	---	0.00	29.910 
05:00	71.3	71.3	71.3	87	67.2	0	0	---	0.00	29.912 
05:05	71.1	71.1	71.1	87	67.0	0	0	---	0.00	29.913 
05:10	70.9	70.9	70.9	88	67.2	0	0	---	0.00	29.915 
05:15	70.9	70.9	70.9	88	67.2	0	0	---	0.00	29.917 
05:20	70.8	70.8	70.8	88	67.1	0	0	---	0.00	29.927 
05:25	70.6	70.6	70.6	89	67.2	0	0	---	0.00	29.924 
05:30	70.4	70.4	70.4	89	67.0	0	0	---	0.00	29.931 
05:35	70.3	70.3	70.3	90	67.2	0	0	---	0.00	29.930 
05:40	70.3	70.3	70.3	90	67.2	0	1	0	0.00	29.929 
05:45	70.3	70.3	70.3	90	67.2	0	0	---	0.00	29.929 
05:50	70.1	70.1	70.1	91	67.3	0	0	---	0.00	29.929 
05:55	70.1	70.1	70.1	91	67.3	0	0	---	0.00	29.932 
06:00	70.1	70.1	70.1	91	67.3	0	0	---	0.00	29.942 
06:05	70.1	70.1	70.1	92	67.7	0	1	0	0.00	29.948 
06:10	70.1	70.1	70.1	92	67.7	0	1	0	0.00	29.948 
06:15	70.3	70.3	70.3	92	67.9	0	1	0	0.00	29.947 
06:20	70.3	70.3	70.3	91	67.5	0	1	0	0.00	29.946 
06:25	70.4	70.4	70.4	91	67.6	0	1	0	0.00	29.942 
06:30	70.4	70.4	70.4	91	67.6	0	1	0	0.00	29.944 
06:35	70.6	70.6	70.6	90	67.5	0	1	0	0.00	29.941 
06:40	70.6	70.6	70.6	90	67.5	0	1	0	0.00	29.935 
06:45	70.6	70.6	70.6	90	67.5	0	1	0	0.00	29.933 
06:50	70.8	70.8	70.8	90	67.7	1	4	68	0.00	29.938 
06:55	70.8	70.8	70.8	90	67.7	0	2	68	0.00	29.946 
07:00	70.9	70.9	70.9	89	67.5	0	2	68	0.00	29.945 
07:05	70.9	70.9	70.9	89	67.5	0	2	68	0.00	29.950 
07:10	71.1	71.1	71.1	90	68.0	0	1	68	0.00	29.951 
07:15	71.1	71.1	71.1	89	67.7	0	2	68	0.00	29.946 
07:20	71.1	71.1	71.1	89	67.7	1	3	68	0.00	29.942 
07:25	71.1	71.1	71.1	89	67.7	1	3	68	0.00	29.942 
07:30	71.3	71.3	71.3	89	67.9	0	2	68	0.00	29.939 
07:35	71.5	71.5	71.5	88	67.7	1	2	68	0.00	29.943 
07:40	71.5	71.5	71.5	88	67.7	1	3	68	0.00	29.941 
07:45	71.6	71.6	71.6	88	67.8	0	1	68	0.00	29.941 
07:50	71.6	71.6	71.6	88	67.8	0	1	68	0.00	29.943 
07:55	72.0	72.0	72.0	88	68.2	0	1	68	0.00	29.939 
08:00	72.5	72.5	72.5	87	68.4	0	1	68	0.00	29.938 
08:05	73.0	73.0	73.0	85	68.2	1	3	135	0.00	29.937 
08:10	73.7	73.7	73.7	84	68.6	0	2	135	0.00	29.938 
08:15	74.0	74.0	74.0	83	68.5	1	4	90	0.00	29.935 
08:20	74.4	74.4	74.4	82	68.5	1	4	90	0.00	29.937 
08:25	74.7	74.7	74.7	81	68.5	1	3	90	0.00	29.931 
08:30	75.3	75.3	76.0	80	68.7	1	4	90	0.00	29.929 
08:35	76.0	76.0	77.1	79	69.0	0	3	90	0.00	29.931 
08:40	76.7	76.7	78.2	76	68.5	1	3	112	0.00	29.929 
08:45	77.2	77.2	79.0	75	68.6	1	3	112	0.00	29.919 
08:50	77.6	77.6	79.5	73	68.2	1	4	135	0.00	29.916 
08:55	77.7	77.7	79.7	73	68.3	1	4	90	0.00	29.916 
09:00	78.1	78.1	80.3	73	68.7	2	4	90	0.00	29.915 
09:05	77.9	77.9	80.0	73	68.5	1	4	112	0.00	29.916 
09:10	78.3	78.3	80.6	73	68.9	1	3	90	0.00	29.917 
09:15	78.6	78.6	81.0	73	69.2	1	3	90	0.00	29.915 
09:20	79.0	79.0	81.6	73	69.6	1	4	90	0.00	29.913 
09:25	79.2	79.2	81.8	71	69.0	2	4	112	0.00	29.914 
09:30	79.4	79.4	82.0	70	68.7	1	3	112	0.00	29.914 
09:35	79.6	79.6	82.4	71	69.3	1	3	112	0.00	29.916 
09:40	79.9	79.9	82.6	68	68.4	1	4	135	0.00	29.916 
09:45	80.1	80.1	83.0	69	69.0	1	4	90	0.00	29.916 
09:50	80.1	80.1	83.1	70	69.4	2	6	90	0.00	29.918 
09:55	80.1	80.1	83.2	71	69.8	1	3	90	0.00	29.916 
10:00	80.3	80.3	83.7	72	70.4	1	6	135	0.00	29.916 
10:05	80.5	80.5	83.8	70	69.8	2	4	90	0.00	29.917 
10:10	80.5	80.5	83.8	70	69.8	2	5	90	0.00	29.916 
10:15	80.9	80.9	84.3	69	69.8	2	4	135	0.00	29.916 
10:20	81.1	81.1	84.6	69	69.9	2	6	112	0.00	29.916 
10:25	81.2	81.2	85.0	70	70.5	2	5	135	0.00	29.915 
10:30	81.4	81.4	85.3	70	70.7	2	4	90	0.00	29.914 
10:35	81.4	81.4	85.1	69	70.2	2	4	90	0.00	29.914 
10:40	81.8	81.8	85.9	69	70.6	3	6	112	0.00	29.910 
10:45	82.0	82.0	86.2	69	70.8	2	5	90	0.00	29.911 
10:50	82.2	82.2	86.4	68	70.6	2	4	90	0.00	29.911 
10:55	82.6	82.6	86.9	67	70.5	2	4	90	0.00	29.913 
11:00	83.0	83.0	87.9	68	71.3	2	6	112	0.00	29.909 
11:05	83.4	83.4	88.4	67	71.3	2	4	68	0.00	29.907 
11:10	83.6	83.6	88.7	67	71.5	3	10	90	0.00	29.907 
11:15	83.6	83.6	89.3	69	72.3	2	5	112	0.00	29.902 
11:20	83.8	83.8	89.7	69	72.5	2	6	112	0.00	29.900 
11:25	84.1	84.1	89.7	67	71.9	1	4	68	0.00	29.898 
11:30	84.9	84.9	91.4	67	72.7	1	3	112	0.00	29.895 
11:35	85.3	85.3	91.9	66	72.6	1	5	90	0.00	29.894 
11:40	85.5	85.5	92.7	67	73.3	2	4	90	0.00	29.896 
11:45	85.7	85.7	92.3	65	72.5	1	6	90	0.00	29.893 
11:50	85.3	85.3	91.2	64	71.7	3	7	90	0.00	29.892 
11:55	85.3	85.3	91.9	66	72.6	2	4	90	0.00	29.886 
12:00	85.7	85.7	92.3	65	72.5	1	4	270	0.00	29.884 
12:05	85.9	85.9	92.8	65	72.7	2	4	270	0.00	29.884 
12:10	86.3	86.3	93.6	65	73.1	2	5	248	0.00	29.882 
12:15	86.5	86.5	93.7	64	72.8	2	9	112	0.00	29.876 
12:20	86.5	86.5	93.7	64	72.8	1	3	292	0.00	29.875 
12:25	86.5	86.5	94.1	65	73.3	2	5	292	0.00	29.870 
12:30	87.2	87.2	97.6	69	75.8	1	4	45	0.00	29.867 
12:35	87.4	87.4	95.7	64	73.7	2	5	248	0.00	29.864 
12:40	87.8	87.8	95.6	62	73.1	1	4	90	0.00	29.862 
12:45	88.2	88.2	98.0	65	74.9	1	2	68	0.00	29.861 
12:50	88.6	88.6	98.5	64	74.8	1	4	68	0.00	29.860 
12:55	88.8	88.8	98.5	63	74.5	1	4	248	0.00	29.860 
13:00	88.8	88.8	97.9	62	74.1	3	6	90	0.00	29.859 
13:05	89.0	89.0	98.4	62	74.3	2	5	90	0.00	29.860 
13:10	89.3	89.3	101.4	66	76.4	1	4	90	0.00	29.858 
13:15	89.7	89.7	101.3	64	75.9	1	5	68	0.00	29.857 
13:20	89.7	89.7	98.4	59	73.4	3	6	248	0.00	29.854 
13:25	89.5	89.5	99.0	61	74.2	1	3	270	0.00	29.851 
13:30	89.9	89.9	100.0	61	74.6	2	7	270	0.00	29.846 
13:35	90.3	90.3	101.6	62	75.5	1	7	270	0.00	29.845 
13:40	90.5	90.5	99.7	58	73.7	1	4	270	0.00	29.843 
13:45	90.7	90.7	98.0	54	71.7	2	6	248	0.00	29.843 
13:50	91.0	91.0	98.6	54	72.0	3	7	270	0.00	29.844 
13:55	91.0	91.0	97.5	52	70.9	3	11	270	0.00	29.842 
14:00	91.0	91.0	97.5	52	70.9	3	6	270	0.00	29.841 
14:05	90.3	90.3	96.6	53	70.8	3	12	248	0.00	29.838 
14:10	89.9	89.9	95.8	53	70.4	3	5	248	0.00	29.835 
14:15	89.9	89.9	95.8	53	70.4	2	7	270	0.00	29.831 
14:20	90.3	90.3	96.1	52	70.2	3	9	248	0.00	29.829 
14:25	90.3	90.3	96.6	53	70.8	1	4	248	0.00	29.829 
14:30	90.5	90.5	97.5	54	71.5	1	4	248	0.00	29.827 
14:35	91.4	91.4	99.5	54	72.4	2	4	270	0.00	29.825 
14:40	91.4	91.4	97.3	50	70.1	2	4	270	0.00	29.821 
14:45	91.4	91.4	97.3	50	70.1	3	9	270	0.00	29.817 
14:50	91.8	91.8	98.1	50	70.5	3	10	225	0.00	29.813 
14:55	92.1	92.1	97.2	47	68.9	2	9	292	0.00	29.811 
15:00	91.6	91.6	96.2	47	68.5	3	5	270	0.00	29.811 
15:05	91.4	91.4	97.3	50	70.1	1	4	248	0.00	29.813 
15:10	91.0	91.0	96.0	49	69.1	2	4	270	0.00	29.812 
15:15	91.0	91.0	97.0	51	70.3	2	4	270	0.00	29.808 
15:20	91.6	91.6	98.8	52	71.4	1	4	248	0.00	29.807 
15:25	91.6	91.6	97.2	49	69.7	2	5	248	0.00	29.805 
15:30	91.4	91.4	97.3	50	70.1	2	7	270	0.00	29.803 
15:35	91.6	91.6	97.7	50	70.3	2	6	270	0.00	29.804 
15:40	91.6	91.6	96.2	47	68.5	2	5	270	0.00	29.808 
15:45	91.6	91.6	96.2	47	68.5	2	5	270	0.00	29.809 
15:50	91.8	91.8	96.1	46	68.0	2	7	270	0.00	29.811 
15:55	91.6	91.6	96.2	47	68.5	2	5	248	0.00	29.815 
16:00	91.0	91.0	95.1	47	67.9	2	5	248	0.00	29.815 
16:05	91.0	91.0	95.6	48	68.5	3	9	270	0.00	29.817 
16:10	91.0	91.0	94.6	46	67.3	3	7	270	0.00	29.816 
16:15	91.0	91.0	94.6	46	67.3	3	11	270	0.00	29.818 
16:20	91.0	91.0	95.1	47	67.9	3	10	270	0.00	29.820 
16:25	90.7	90.7	95.5	49	68.9	3	10	270	0.00	29.825 
16:30	90.5	90.5	95.1	49	68.7	3	5	270	0.00	29.828 
16:35	90.7	90.7	95.5	49	68.9	2	7	248	0.00	29.827 
16:40	90.7	90.7	95.9	50	69.5	2	7	270	0.00	29.828 
16:45	90.5	90.5	96.5	52	70.4	2	6	270	0.00	29.830 
16:50	90.3	90.3	95.6	51	69.7	2	6	270	0.00	29.833 
16:55	90.3	90.3	96.6	53	70.8	1	4	248	0.00	29.834 
17:00	90.1	90.1	94.8	50	68.9	2	11	248	0.00	29.835 
17:05	90.1	90.1	95.2	51	69.5	3	11	270	0.00	29.836 
17:10	89.9	89.9	95.3	52	69.9	2	6	270	0.00	29.835 
17:15	89.5	89.5	95.0	53	70.1	2	5	248	0.00	29.834 
17:20	89.5	89.5	95.0	53	70.1	1	5	292	0.00	29.833 
17:25	89.7	89.7	94.5	51	69.1	2	7	248	0.00	29.835 
17:30	89.7	89.7	94.9	52	69.7	3	5	270	0.00	29.840 
17:35	89.3	89.3	94.6	53	69.9	2	8	270	0.00	29.838 
17:40	89.0	89.0	94.0	53	69.6	3	7	270	0.00	29.839 
17:45	89.0	89.0	93.2	51	68.5	2	5	270	0.00	29.836 
17:50	88.8	88.8	93.7	53	69.4	2	5	270	0.00	29.836 
17:55	88.8	88.8	93.7	53	69.4	1	4	248	0.00	29.833 
18:00	88.4	88.4	93.3	54	69.6	1	4	270	0.00	29.829 
18:05	88.2	88.2	92.5	53	68.9	1	5	270	0.00	29.822 
18:10	88.2	88.2	92.5	53	68.9	1	3	270	0.00	29.819 
18:15	88.0	88.0	92.6	54	69.2	1	3	248	0.00	29.817 
18:20	87.8	87.8	92.6	55	69.6	0	1	248	0.00	29.814 
18:25	87.6	87.6	92.6	56	69.9	0	1	248	0.00	29.815 
18:30	87.4	87.4	92.2	56	69.7	0	1	248	0.00	29.809 
18:35	87.2	87.2	91.9	56	69.6	0	2	225	0.00	29.806 
18:40	87.0	87.0	91.5	56	69.4	0	1	225	0.00	29.805 
18:45	86.5	86.5	91.0	57	69.4	0	1	225	0.00	29.801 
18:50	86.3	86.3	90.6	57	69.2	0	2	225	0.00	29.799 
18:55	85.9	85.9	90.6	59	69.9	0	1	225	0.00	29.791 
19:00	85.5	85.5	89.8	59	69.5	0	1	225	0.00	29.793 
19:05	85.1	85.1	89.8	61	70.1	0	1	225	0.00	29.789 
19:10	84.7	84.7	89.0	61	69.7	0	1	225	0.00	29.790 
19:15	84.3	84.3	88.9	63	70.3	0	0	---	0.00	29.792 
19:20	84.0	84.0	88.4	63	70.0	0	0	---	0.00	29.803 
19:25	83.4	83.4	87.6	64	69.9	0	0	---	0.00	29.807 
19:30	83.2	83.2	87.5	65	70.2	0	1	225	0.00	29.810 
19:35	82.8	82.8	87.0	66	70.3	0	1	225	0.00	29.808 
19:40	82.6	82.6	86.9	67	70.5	0	0	---	0.00	29.815 
19:45	82.4	82.4	86.7	68	70.8	0	0	---	0.00	29.821 
19:50	82.0	82.0	86.2	69	70.8	0	0	---	0.00	29.822 
19:55	81.8	81.8	86.1	70	71.0	0	0	---	0.00	29.823 
20:00	81.6	81.6	85.7	70	70.8	0	0	---	0.00	29.828 
20:05	81.4	81.4	85.5	71	71.1	0	0	---	0.00	29.825 
20:10	81.2	81.2	85.2	71	70.9	0	0	---	0.00	29.825 
20:15	81.1	81.1	85.2	72	71.2	0	0	---	0.00	29.829 
20:20	81.1	81.1	85.3	73	71.6	0	0	---	0.00	29.832 
20:25	80.9	80.9	85.0	73	71.4	0	0	---	0.00	29.831 
20:30	80.7	80.7	84.6	73	71.2	0	0	---	0.00	29.829 
20:35	80.7	80.7	84.6	73	71.2	0	0	---	0.00	29.832 
20:40	80.7	80.7	84.7	74	71.6	0	0	---	0.00	29.833 
20:45	80.7	80.7	84.7	74	71.6	0	0	---	0.00	29.835 
20:50	80.7	80.7	84.9	75	72.0	0	0	---	0.00	29.834 
20:55	80.7	80.7	84.9	75	72.0	0	0	---	0.00	29.835 
21:00	80.5	80.5	84.7	76	72.2	0	0	---	0.00	29.835 
21:05	80.5	80.5	84.7	76	72.2	0	0	---	0.00	29.835 
21:10	80.5	80.5	84.8	77	72.6	0	0	---	0.00	29.838 
21:15	80.5	80.5	84.7	76	72.2	0	0	---	0.00	29.847 
21:20	80.7	80.7	84.9	75	72.0	0	1	225	0.00	29.849 
21:25	80.9	80.9	85.0	73	71.4	0	1	315	0.00	29.846 
21:30	80.5	80.5	83.9	71	70.2	0	1	315	0.00	29.848 
21:35	79.9	79.9	82.2	65	67.1	0	2	292	0.00	29.848 
21:40	79.2	79.2	81.3	65	66.4	1	4	315	0.00	29.868 
21:45	78.6	78.6	80.4	63	64.9	4	11	292	0.00	29.869 
21:50	78.1	78.1	79.9	64	64.9	4	7	292	0.00	29.887 
21:55	77.4	77.4	79.2	66	65.1	5	12	315	0.00	29.889 
22:00	76.5	76.5	78.2	71	66.4	3	6	292	0.01	29.898 
22:05	74.4	74.4	74.4	74	65.6	4	11	292	0.00	29.894 
22:10	73.7	73.7	73.7	76	65.6	5	13	292	0.00	29.901 
22:15	73.5	73.5	73.5	77	65.8	5	13	292	0.00	29.902 
22:20	72.5	72.5	72.5	81	66.3	3	9	315	0.01	29.901 
22:25	71.8	71.8	71.8	83	66.3	2	6	315	0.00	29.900 
22:30	71.5	71.5	71.5	84	66.4	2	6	315	0.00	29.900 
22:35	71.1	71.1	71.1	85	66.4	1	3	338	0.00	29.897 
22:40	70.9	70.9	70.9	86	66.5	1	4	292	0.00	29.891 
22:45	70.9	70.9	70.9	86	66.5	0	2	315	0.00	29.890 
22:50	70.9	70.9	70.9	86	66.5	0	1	315	0.00	29.889 
22:55	70.9	70.9	70.9	87	66.8	0	1	315	0.00	29.886 
23:00	70.8	70.8	70.8	87	66.7	0	1	315	0.00	29.885 
23:05	70.9	70.9	70.9	87	66.8	1	2	315	0.00	29.897 
23:10	71.1	71.1	71.1	87	67.0	1	3	315	0.00	29.904 
23:15	71.1	71.1	71.1	86	66.7	1	4	270	0.00	29.895 
23:20	71.3	71.3	71.3	86	66.9	0	1	270	0.00	29.884 
23:25	71.3	71.3	71.3	86	66.9	0	2	270	0.00	29.886 
23:30	71.3	71.3	71.3	86	66.9	0	1	270	0.00	29.873 
23:35	71.3	71.3	71.3	86	66.9	0	1	270	0.00	29.874 
23:40	71.3	71.3	71.3	86	66.9	0	1	270	0.00	29.874 
23:45	71.3	71.3	71.3	86	66.9	0	1	270	0.00	29.880 
23:50	71.3	71.3	71.3	86	66.9	0	1	270	0.00	29.882 
23:55	71.1	71.1	71.1	87	67.0	0	1	270	0.00	29.884 

CoCoRaHS
IN-AL-39
A2 Web Hosting
Creative Commons License
GoDaddy
Look for:

loaded 2017-10-19 19:54:44 • last modified 2010-11-18 10:43:29
Privacy PolicyDisclaimer
• wx.awcolley.com is powered by PmWiki v.2002016 •
• all content (unless otherwise noted) © 2017 A W Colley